METAR Data
IDs: Format: Raw Decoded Include TAF

Data at: 1349 UTC 26 Feb 2021

LFRS 261330Z AUTO 06010KT 360V090 CAVOK 13/03 Q1035 NOSIG